sensor_id;sensor_type;location;lat;lon;timestamp;temperature;humidity
56298;DHT22;42208;6.376;-10.782;2023-09-19T00:00:49;25.40;99.90
56298;DHT22;42208;6.376;-10.782;2023-09-19T00:03:18;25.40;99.90
56298;DHT22;42208;6.376;-10.782;2023-09-19T00:05:47;25.40;99.90
56298;DHT22;42208;6.376;-10.782;2023-09-19T00:08:16;25.40;99.90
56298;DHT22;42208;6.376;-10.782;2023-09-19T00:10:45;25.40;99.90
56298;DHT22;42208;6.376;-10.782;2023-09-19T00:13:13;25.40;99.90
56298;DHT22;42208;6.376;-10.782;2023-09-19T00:15:45;25.40;99.90
56298;DHT22;42208;6.376;-10.782;2023-09-19T00:18:15;25.40;99.90
56298;DHT22;42208;6.376;-10.782;2023-09-19T00:20:44;25.40;99.90
56298;DHT22;42208;6.376;-10.782;2023-09-19T00:23:12;25.40;99.90
56298;DHT22;42208;6.376;-10.782;2023-09-19T00:25:41;25.50;99.90
56298;DHT22;42208;6.376;-10.782;2023-09-19T00:28:09;25.50;99.90
56298;DHT22;42208;6.376;-10.782;2023-09-19T00:30:38;25.50;99.90
56298;DHT22;42208;6.376;-10.782;2023-09-19T00:33:07;25.50;99.90
56298;DHT22;42208;6.376;-10.782;2023-09-19T00:35:37;25.50;99.90
56298;DHT22;42208;6.376;-10.782;2023-09-19T00:38:05;25.50;99.90
56298;DHT22;42208;6.376;-10.782;2023-09-19T00:40:34;25.40;99.90
56298;DHT22;42208;6.376;-10.782;2023-09-19T00:43:03;25.40;99.90
56298;DHT22;42208;6.376;-10.782;2023-09-19T00:45:32;25.40;99.90
56298;DHT22;42208;6.376;-10.782;2023-09-19T00:48:02;25.40;99.90
56298;DHT22;42208;6.376;-10.782;2023-09-19T00:50:31;25.40;99.90
56298;DHT22;42208;6.376;-10.782;2023-09-19T00:53:00;25.30;99.90
56298;DHT22;42208;6.376;-10.782;2023-09-19T00:55:30;25.30;99.90
56298;DHT22;42208;6.376;-10.782;2023-09-19T00:57:58;25.30;99.90
56298;DHT22;42208;6.376;-10.782;2023-09-19T01:00:27;25.30;99.90
56298;DHT22;42208;6.376;-10.782;2023-09-19T01:02:57;25.30;99.90
56298;DHT22;42208;6.376;-10.782;2023-09-19T01:05:25;25.30;99.90
56298;DHT22;42208;6.376;-10.782;2023-09-19T01:07:54;25.20;99.90
56298;DHT22;42208;6.376;-10.782;2023-09-19T01:10:23;25.30;99.90
56298;DHT22;42208;6.376;-10.782;2023-09-19T01:13:08;25.30;99.90
56298;DHT22;42208;6.376;-10.782;2023-09-19T01:19:07;25.40;99.90
56298;DHT22;42208;6.376;-10.782;2023-09-19T01:21:55;25.40;99.90
56298;DHT22;42208;6.376;-10.782;2023-09-19T01:30:18;25.40;99.90
56298;DHT22;42208;6.376;-10.782;2023-09-19T01:32:50;25.50;99.90
56298;DHT22;42208;6.376;-10.782;2023-09-19T01:35:19;25.50;99.90
56298;DHT22;42208;6.376;-10.782;2023-09-19T01:37:47;25.50;99.90
56298;DHT22;42208;6.376;-10.782;2023-09-19T01:40:18;25.50;99.90
56298;DHT22;42208;6.376;-10.782;2023-09-19T01:51:06;25.50;99.90
56298;DHT22;42208;6.376;-10.782;2023-09-19T01:53:56;25.50;99.90
56298;DHT22;42208;6.376;-10.782;2023-09-19T01:56:59;25.50;99.90
56298;DHT22;42208;6.376;-10.782;2023-09-19T01:59:36;25.60;99.90
56298;DHT22;42208;6.376;-10.782;2023-09-19T02:02:06;25.50;99.90
56298;DHT22;42208;6.376;-10.782;2023-09-19T02:04:35;25.60;99.90
56298;DHT22;42208;6.376;-10.782;2023-09-19T02:07:04;25.60;99.90
56298;DHT22;42208;6.376;-10.782;2023-09-19T02:09:32;25.60;99.90
56298;DHT22;42208;6.376;-10.782;2023-09-19T02:12:02;25.60;99.90
56298;DHT22;42208;6.376;-10.782;2023-09-19T02:14:32;25.60;99.90
56298;DHT22;42208;6.376;-10.782;2023-09-19T02:17:00;25.60;99.90
56298;DHT22;42208;6.376;-10.782;2023-09-19T02:19:29;25.60;99.90
56298;DHT22;42208;6.376;-10.782;2023-09-19T02:21:57;25.60;99.90
56298;DHT22;42208;6.376;-10.782;2023-09-19T02:24:26;25.50;99.90
56298;DHT22;42208;6.376;-10.782;2023-09-19T02:26:55;25.60;99.90
56298;DHT22;42208;6.376;-10.782;2023-09-19T02:29:24;25.60;99.90
56298;DHT22;42208;6.376;-10.782;2023-09-19T02:31:53;25.50;99.90
56298;DHT22;42208;6.376;-10.782;2023-09-19T02:34:22;25.60;99.90
56298;DHT22;42208;6.376;-10.782;2023-09-19T02:36:50;25.50;99.90
56298;DHT22;42208;6.376;-10.782;2023-09-19T02:39:19;25.50;99.90
56298;DHT22;42208;6.376;-10.782;2023-09-19T02:41:47;25.50;99.90
56298;DHT22;42208;6.376;-10.782;2023-09-19T02:44:16;25.50;99.90
56298;DHT22;42208;6.376;-10.782;2023-09-19T02:46:45;25.50;99.90
56298;DHT22;42208;6.376;-10.782;2023-09-19T02:49:13;25.40;99.90
56298;DHT22;42208;6.376;-10.782;2023-09-19T02:51:43;25.40;99.90
56298;DHT22;42208;6.376;-10.782;2023-09-19T02:54:11;25.40;99.90
56298;DHT22;42208;6.376;-10.782;2023-09-19T02:56:40;25.40;99.90
56298;DHT22;42208;6.376;-10.782;2023-09-19T02:59:08;25.40;99.90
56298;DHT22;42208;6.376;-10.782;2023-09-19T03:01:37;25.40;99.90
56298;DHT22;42208;6.376;-10.782;2023-09-19T03:04:06;25.40;99.90
56298;DHT22;42208;6.376;-10.782;2023-09-19T03:06:35;25.40;99.90
56298;DHT22;42208;6.376;-10.782;2023-09-19T03:09:04;25.40;99.90
56298;DHT22;42208;6.376;-10.782;2023-09-19T03:11:32;25.40;99.90
56298;DHT22;42208;6.376;-10.782;2023-09-19T03:14:01;25.30;99.90
56298;DHT22;42208;6.376;-10.782;2023-09-19T03:16:29;25.40;99.90
56298;DHT22;42208;6.376;-10.782;2023-09-19T03:18:59;25.30;99.90
56298;DHT22;42208;6.376;-10.782;2023-09-19T03:21:31;25.40;99.90
56298;DHT22;42208;6.376;-10.782;2023-09-19T03:24:00;25.40;99.90
56298;DHT22;42208;6.376;-10.782;2023-09-19T03:26:28;25.40;99.90
56298;DHT22;42208;6.376;-10.782;2023-09-19T03:28:57;25.30;99.90
56298;DHT22;42208;6.376;-10.782;2023-09-19T03:31:25;25.30;99.90
56298;DHT22;42208;6.376;-10.782;2023-09-19T03:33:54;25.30;99.90
56298;DHT22;42208;6.376;-10.782;2023-09-19T03:36:22;25.30;99.90
56298;DHT22;42208;6.376;-10.782;2023-09-19T03:38:51;25.30;99.90
56298;DHT22;42208;6.376;-10.782;2023-09-19T03:41:20;25.30;99.90
56298;DHT22;42208;6.376;-10.782;2023-09-19T03:43:49;25.30;99.90
56298;DHT22;42208;6.376;-10.782;2023-09-19T03:46:17;25.30;99.90
56298;DHT22;42208;6.376;-10.782;2023-09-19T03:48:46;25.20;99.90
56298;DHT22;42208;6.376;-10.782;2023-09-19T03:51:15;25.20;99.90
56298;DHT22;42208;6.376;-10.782;2023-09-19T03:53:43;25.20;99.90
56298;DHT22;42208;6.376;-10.782;2023-09-19T03:56:12;25.20;99.90
56298;DHT22;42208;6.376;-10.782;2023-09-19T03:58:40;25.20;99.90
56298;DHT22;42208;6.376;-10.782;2023-09-19T04:01:09;25.20;99.90
56298;DHT22;42208;6.376;-10.782;2023-09-19T04:03:37;25.20;99.90
56298;DHT22;42208;6.376;-10.782;2023-09-19T04:06:06;25.20;99.90
56298;DHT22;42208;6.376;-10.782;2023-09-19T04:08:35;25.20;99.90
56298;DHT22;42208;6.376;-10.782;2023-09-19T04:11:03;25.20;99.90
56298;DHT22;42208;6.376;-10.782;2023-09-19T04:13:32;25.20;99.90
56298;DHT22;42208;6.376;-10.782;2023-09-19T04:16:00;25.30;99.90
56298;DHT22;42208;6.376;-10.782;2023-09-19T04:18:29;25.20;99.90
56298;DHT22;42208;6.376;-10.782;2023-09-19T04:20:57;25.20;99.90
56298;DHT22;42208;6.376;-10.782;2023-09-19T04:23:26;25.20;99.90
56298;DHT22;42208;6.376;-10.782;2023-09-19T04:25:55;25.20;99.90
56298;DHT22;42208;6.376;-10.782;2023-09-19T04:28:23;25.20;99.90
56298;DHT22;42208;6.376;-10.782;2023-09-19T04:30:52;25.20;99.90
56298;DHT22;42208;6.376;-10.782;2023-09-19T04:33:20;25.20;99.90
56298;DHT22;42208;6.376;-10.782;2023-09-19T04:35:50;25.20;99.90
56298;DHT22;42208;6.376;-10.782;2023-09-19T04:38:19;25.20;99.90
56298;DHT22;42208;6.376;-10.782;2023-09-19T04:40:47;25.20;99.90
56298;DHT22;42208;6.376;-10.782;2023-09-19T04:43:16;25.10;99.90
56298;DHT22;42208;6.376;-10.782;2023-09-19T04:45:44;25.00;99.90
56298;DHT22;42208;6.376;-10.782;2023-09-19T04:48:13;24.90;99.90
56298;DHT22;42208;6.376;-10.782;2023-09-19T04:50:41;24.90;99.90
56298;DHT22;42208;6.376;-10.782;2023-09-19T04:53:10;24.90;99.90
56298;DHT22;42208;6.376;-10.782;2023-09-19T04:55:38;24.90;99.90
56298;DHT22;42208;6.376;-10.782;2023-09-19T04:58:07;24.90;99.90
56298;DHT22;42208;6.376;-10.782;2023-09-19T05:00:36;24.90;99.90
56298;DHT22;42208;6.376;-10.782;2023-09-19T05:03:04;24.80;99.90
56298;DHT22;42208;6.376;-10.782;2023-09-19T05:05:33;24.90;99.90
56298;DHT22;42208;6.376;-10.782;2023-09-19T05:08:01;24.80;99.90
56298;DHT22;42208;6.376;-10.782;2023-09-19T05:10:33;24.90;99.90
56298;DHT22;42208;6.376;-10.782;2023-09-19T05:13:02;24.90;99.90
56298;DHT22;42208;6.376;-10.782;2023-09-19T05:15:31;24.80;99.90
56298;DHT22;42208;6.376;-10.782;2023-09-19T05:17:59;24.70;99.90
56298;DHT22;42208;6.376;-10.782;2023-09-19T05:20:27;24.80;99.90
56298;DHT22;42208;6.376;-10.782;2023-09-19T05:23:00;24.70;99.90
56298;DHT22;42208;6.376;-10.782;2023-09-19T05:25:31;24.70;99.90
56298;DHT22;42208;6.376;-10.782;2023-09-19T05:28:00;24.70;99.90
56298;DHT22;42208;6.376;-10.782;2023-09-19T05:30:28;24.70;99.90
56298;DHT22;42208;6.376;-10.782;2023-09-19T05:32:57;24.70;99.90
56298;DHT22;42208;6.376;-10.782;2023-09-19T05:35:26;24.70;99.90
56298;DHT22;42208;6.376;-10.782;2023-09-19T05:37:55;24.70;99.90
56298;DHT22;42208;6.376;-10.782;2023-09-19T05:40:24;24.70;99.90
56298;DHT22;42208;6.376;-10.782;2023-09-19T05:42:53;24.70;99.90
56298;DHT22;42208;6.376;-10.782;2023-09-19T05:45:22;24.70;99.90
56298;DHT22;42208;6.376;-10.782;2023-09-19T05:47:51;24.70;99.90
56298;DHT22;42208;6.376;-10.782;2023-09-19T05:50:19;24.70;99.90
56298;DHT22;42208;6.376;-10.782;2023-09-19T05:52:54;24.80;99.90
56298;DHT22;42208;6.376;-10.782;2023-09-19T05:55:22;24.80;99.90
56298;DHT22;42208;6.376;-10.782;2023-09-19T05:57:52;24.80;99.90
56298;DHT22;42208;6.376;-10.782;2023-09-19T06:00:22;24.80;99.90
56298;DHT22;42208;6.376;-10.782;2023-09-19T06:02:54;24.80;99.90
56298;DHT22;42208;6.376;-10.782;2023-09-19T06:05:24;24.80;99.90
56298;DHT22;42208;6.376;-10.782;2023-09-19T06:07:53;24.80;99.90
56298;DHT22;42208;6.376;-10.782;2023-09-19T06:10:22;24.80;99.90
56298;DHT22;42208;6.376;-10.782;2023-09-19T06:12:51;24.80;99.90
56298;DHT22;42208;6.376;-10.782;2023-09-19T06:15:19;24.80;99.90
56298;DHT22;42208;6.376;-10.782;2023-09-19T06:17:49;24.80;99.90
56298;DHT22;42208;6.376;-10.782;2023-09-19T06:20:18;24.80;99.90
56298;DHT22;42208;6.376;-10.782;2023-09-19T06:22:47;24.80;99.90
56298;DHT22;42208;6.376;-10.782;2023-09-19T06:25:16;24.80;99.90
56298;DHT22;42208;6.376;-10.782;2023-09-19T06:27:49;24.80;99.90
56298;DHT22;42208;6.376;-10.782;2023-09-19T06:30:18;24.80;99.90
56298;DHT22;42208;6.376;-10.782;2023-09-19T06:32:46;24.80;99.90
56298;DHT22;42208;6.376;-10.782;2023-09-19T06:35:16;24.80;99.90
56298;DHT22;42208;6.376;-10.782;2023-09-19T06:37:44;24.80;99.90
56298;DHT22;42208;6.376;-10.782;2023-09-19T06:40:14;24.80;99.90
56298;DHT22;42208;6.376;-10.782;2023-09-19T06:42:53;24.80;99.90
56298;DHT22;42208;6.376;-10.782;2023-09-19T06:45:21;24.80;99.90
56298;DHT22;42208;6.376;-10.782;2023-09-19T06:47:51;24.70;99.90
56298;DHT22;42208;6.376;-10.782;2023-09-19T06:50:21;24.70;99.90
56298;DHT22;42208;6.376;-10.782;2023-09-19T06:52:51;24.80;99.90
56298;DHT22;42208;6.376;-10.782;2023-09-19T06:55:21;24.70;99.90
56298;DHT22;42208;6.376;-10.782;2023-09-19T06:57:50;24.70;99.90
56298;DHT22;42208;6.376;-10.782;2023-09-19T07:00:18;24.70;99.90
56298;DHT22;42208;6.376;-10.782;2023-09-19T07:03:07;24.70;99.90
56298;DHT22;42208;6.376;-10.782;2023-09-19T07:05:37;24.70;99.90
56298;DHT22;42208;6.376;-10.782;2023-09-19T07:08:08;24.70;99.90
56298;DHT22;42208;6.376;-10.782;2023-09-19T07:10:38;24.70;99.90
56298;DHT22;42208;6.376;-10.782;2023-09-19T07:13:08;24.70;99.90
56298;DHT22;42208;6.376;-10.782;2023-09-19T07:15:38;24.70;99.90
56298;DHT22;42208;6.376;-10.782;2023-09-19T07:18:07;24.70;99.90
56298;DHT22;42208;6.376;-10.782;2023-09-19T07:20:36;24.70;99.90
56298;DHT22;42208;6.376;-10.782;2023-09-19T07:23:06;24.70;99.90
56298;DHT22;42208;6.376;-10.782;2023-09-19T07:25:36;24.80;99.90
56298;DHT22;42208;6.376;-10.782;2023-09-19T07:28:04;24.80;99.90
56298;DHT22;42208;6.376;-10.782;2023-09-19T07:30:36;24.80;99.90
56298;DHT22;42208;6.376;-10.782;2023-09-19T07:33:05;24.80;99.90
56298;DHT22;42208;6.376;-10.782;2023-09-19T07:35:33;24.80;99.90
56298;DHT22;42208;6.376;-10.782;2023-09-19T07:38:02;24.80;99.90
56298;DHT22;42208;6.376;-10.782;2023-09-19T07:40:30;24.80;99.90
56298;DHT22;42208;6.376;-10.782;2023-09-19T07:42:59;24.80;99.90
56298;DHT22;42208;6.376;-10.782;2023-09-19T07:45:31;24.80;99.90
56298;DHT22;42208;6.376;-10.782;2023-09-19T07:47:59;24.80;99.90
56298;DHT22;42208;6.376;-10.782;2023-09-19T07:50:33;24.80;99.90
56298;DHT22;42208;6.376;-10.782;2023-09-19T07:53:02;24.80;99.90
56298;DHT22;42208;6.376;-10.782;2023-09-19T07:55:30;24.90;99.90
56298;DHT22;42208;6.376;-10.782;2023-09-19T07:57:59;24.80;99.90
56298;DHT22;42208;6.376;-10.782;2023-09-19T08:00:28;24.90;99.90
56298;DHT22;42208;6.376;-10.782;2023-09-19T08:02:56;24.90;99.90
56298;DHT22;42208;6.376;-10.782;2023-09-19T08:05:50;25.00;99.90
56298;DHT22;42208;6.376;-10.782;2023-09-19T08:08:31;25.00;99.90
56298;DHT22;42208;6.376;-10.782;2023-09-19T08:11:26;25.00;99.90
56298;DHT22;42208;6.376;-10.782;2023-09-19T08:13:55;25.00;99.90
56298;DHT22;42208;6.376;-10.782;2023-09-19T08:16:23;25.10;99.90
56298;DHT22;42208;6.376;-10.782;2023-09-19T08:18:52;25.00;99.90
56298;DHT22;42208;6.376;-10.782;2023-09-19T08:21:24;25.10;99.90
56298;DHT22;42208;6.376;-10.782;2023-09-19T08:23:52;25.10;99.90
56298;DHT22;42208;6.376;-10.782;2023-09-19T08:26:21;25.10;99.90
56298;DHT22;42208;6.376;-10.782;2023-09-19T08:28:50;25.20;99.90
56298;DHT22;42208;6.376;-10.782;2023-09-19T08:31:19;25.20;99.90
56298;DHT22;42208;6.376;-10.782;2023-09-19T08:33:48;25.20;99.90
56298;DHT22;42208;6.376;-10.782;2023-09-19T08:36:16;25.20;99.90
56298;DHT22;42208;6.376;-10.782;2023-09-19T08:38:45;25.20;99.90
56298;DHT22;42208;6.376;-10.782;2023-09-19T08:44:00;25.10;99.90
56298;DHT22;42208;6.376;-10.782;2023-09-19T08:46:31;25.20;99.90
56298;DHT22;42208;6.376;-10.782;2023-09-19T08:49:13;25.10;99.90
56298;DHT22;42208;6.376;-10.782;2023-09-19T08:51:53;25.00;99.90
56298;DHT22;42208;6.376;-10.782;2023-09-19T08:54:35;25.00;99.90
56298;DHT22;42208;6.376;-10.782;2023-09-19T08:57:07;25.00;99.90
56298;DHT22;42208;6.376;-10.782;2023-09-19T08:59:40;24.90;99.90
56298;DHT22;42208;6.376;-10.782;2023-09-19T09:02:12;24.90;99.90
56298;DHT22;42208;6.376;-10.782;2023-09-19T09:04:43;24.90;99.90
56298;DHT22;42208;6.376;-10.782;2023-09-19T09:07:14;24.90;99.90
56298;DHT22;42208;6.376;-10.782;2023-09-19T09:09:46;25.00;99.90
56298;DHT22;42208;6.376;-10.782;2023-09-19T09:12:16;25.00;99.90
56298;DHT22;42208;6.376;-10.782;2023-09-19T09:14:46;25.00;99.90
56298;DHT22;42208;6.376;-10.782;2023-09-19T09:17:15;25.00;99.90
56298;DHT22;42208;6.376;-10.782;2023-09-19T09:19:45;25.10;99.90
56298;DHT22;42208;6.376;-10.782;2023-09-19T09:22:14;25.10;99.90
56298;DHT22;42208;6.376;-10.782;2023-09-19T09:24:53;25.10;99.90
56298;DHT22;42208;6.376;-10.782;2023-09-19T09:27:23;25.10;99.90
56298;DHT22;42208;6.376;-10.782;2023-09-19T09:30:02;25.10;99.90
56298;DHT22;42208;6.376;-10.782;2023-09-19T09:32:31;25.00;99.90
56298;DHT22;42208;6.376;-10.782;2023-09-19T09:35:01;25.00;99.90
56298;DHT22;42208;6.376;-10.782;2023-09-19T09:37:32;25.00;99.90
56298;DHT22;42208;6.376;-10.782;2023-09-19T09:40:13;25.00;99.90
56298;DHT22;42208;6.376;-10.782;2023-09-19T09:42:52;25.00;99.90
56298;DHT22;42208;6.376;-10.782;2023-09-19T09:46:13;25.00;99.90
56298;DHT22;42208;6.376;-10.782;2023-09-19T09:48:42;25.10;99.90
56298;DHT22;42208;6.376;-10.782;2023-09-19T09:51:11;25.10;99.90
56298;DHT22;42208;6.376;-10.782;2023-09-19T09:53:40;25.20;99.90
56298;DHT22;42208;6.376;-10.782;2023-09-19T09:56:09;25.20;99.90
56298;DHT22;42208;6.376;-10.782;2023-09-19T09:58:57;25.30;99.90
56298;DHT22;42208;6.376;-10.782;2023-09-19T10:01:26;25.30;99.90
56298;DHT22;42208;6.376;-10.782;2023-09-19T10:03:58;25.30;99.90
56298;DHT22;42208;6.376;-10.782;2023-09-19T10:06:42;25.30;99.90
56298;DHT22;42208;6.376;-10.782;2023-09-19T10:09:12;25.30;99.90
56298;DHT22;42208;6.376;-10.782;2023-09-19T10:12:00;25.40;99.90
56298;DHT22;42208;6.376;-10.782;2023-09-19T10:14:57;25.40;99.90
56298;DHT22;42208;6.376;-10.782;2023-09-19T10:17:29;25.40;99.90
56298;DHT22;42208;6.376;-10.782;2023-09-19T10:20:00;25.50;99.90
56298;DHT22;42208;6.376;-10.782;2023-09-19T10:22:32;25.60;99.90
56298;DHT22;42208;6.376;-10.782;2023-09-19T10:25:04;25.60;99.90
56298;DHT22;42208;6.376;-10.782;2023-09-19T10:27:36;25.70;99.90
56298;DHT22;42208;6.376;-10.782;2023-09-19T10:30:06;25.70;99.90
56298;DHT22;42208;6.376;-10.782;2023-09-19T10:32:38;25.80;99.90
56298;DHT22;42208;6.376;-10.782;2023-09-19T10:35:11;25.80;99.90
56298;DHT22;42208;6.376;-10.782;2023-09-19T10:37:40;25.90;99.90
56298;DHT22;42208;6.376;-10.782;2023-09-19T10:40:09;25.80;99.90
56298;DHT22;42208;6.376;-10.782;2023-09-19T10:42:41;25.80;99.90
56298;DHT22;42208;6.376;-10.782;2023-09-19T10:45:11;25.70;99.90
56298;DHT22;42208;6.376;-10.782;2023-09-19T10:47:40;25.70;99.90
56298;DHT22;42208;6.376;-10.782;2023-09-19T10:50:20;25.70;99.90
56298;DHT22;42208;6.376;-10.782;2023-09-19T10:52:50;25.80;99.90
56298;DHT22;42208;6.376;-10.782;2023-09-19T10:55:20;25.80;99.90
56298;DHT22;42208;6.376;-10.782;2023-09-19T10:58:32;25.90;99.90
